createdAt,value
2023-05-05T00:00:26.294Z,5.20
2023-05-05T00:02:52.982Z,4.85
2023-05-05T00:05:19.700Z,4.43
2023-05-05T00:07:46.217Z,5.43
2023-05-05T00:10:12.730Z,5.22
2023-05-05T00:12:39.544Z,5.03
2023-05-05T00:15:07.388Z,4.40
2023-05-05T00:17:34.028Z,4.93
2023-05-05T00:20:00.878Z,4.10
2023-05-05T00:22:27.372Z,4.80
2023-05-05T00:24:53.825Z,4.88
2023-05-05T00:27:20.305Z,4.55
2023-05-05T00:29:49.091Z,5.00
2023-05-05T00:32:15.573Z,4.82
2023-05-05T00:34:42.140Z,5.03
2023-05-05T00:37:08.897Z,4.13
2023-05-05T00:39:35.443Z,5.10
2023-05-05T00:42:01.954Z,4.82
2023-05-05T00:44:40.752Z,4.82
2023-05-05T00:47:12.503Z,4.70
2023-05-05T00:49:39.750Z,4.68
2023-05-05T00:52:07.462Z,4.78
2023-05-05T00:54:35.087Z,3.95
2023-05-05T00:57:04.808Z,4.22
2023-05-05T00:59:37.230Z,4.45
2023-05-05T01:02:03.872Z,5.22
2023-05-05T01:04:30.589Z,4.30
2023-05-05T01:07:17.475Z,4.10
2023-05-05T01:10:25.631Z,4.47
2023-05-05T01:13:23.046Z,4.00
2023-05-05T01:15:49.614Z,4.47
2023-05-05T01:18:35.097Z,4.03
2023-05-05T01:21:23.712Z,4.10
2023-05-05T01:23:56.295Z,4.25
2023-05-05T01:26:51.332Z,5.05
2023-05-05T01:30:10.335Z,4.97
2023-05-05T01:32:48.099Z,4.72
2023-05-05T01:35:32.911Z,5.25
2023-05-05T01:38:06.215Z,4.28
2023-05-05T01:40:38.273Z,5.45
2023-05-05T01:43:07.512Z,6.10
2023-05-05T01:45:38.009Z,5.57
2023-05-05T01:48:06.686Z,5.72
2023-05-05T01:50:34.584Z,4.80
2023-05-05T01:53:03.812Z,5.68
2023-05-05T01:55:32.408Z,5.30
2023-05-05T01:58:00.180Z,5.22
2023-05-05T02:00:49.785Z,5.40
2023-05-05T02:03:17.850Z,4.82
2023-05-05T02:05:45.350Z,5.07
2023-05-05T02:08:12.647Z,5.53
2023-05-05T02:10:43.643Z,4.35
2023-05-05T02:13:13.340Z,3.88
2023-05-05T02:15:40.864Z,4.60
2023-05-05T02:18:07.764Z,3.53
2023-05-05T02:20:37.355Z,4.28
2023-05-05T02:23:05.812Z,4.05
2023-05-05T02:25:53.216Z,3.92
2023-05-05T02:28:48.972Z,3.42
2023-05-05T02:31:17.855Z,3.70
2023-05-05T02:33:49.846Z,3.83
2023-05-05T02:36:22.717Z,4.00
2023-05-05T02:38:55.569Z,3.75
2023-05-05T02:41:23.348Z,3.53
2023-05-05T02:43:52.342Z,3.33
2023-05-05T02:46:19.511Z,3.65
2023-05-05T02:48:46.480Z,4.10
2023-05-05T02:51:13.010Z,4.00
2023-05-05T02:53:39.957Z,3.92
2023-05-05T02:56:29.592Z,3.78
2023-05-05T02:59:16.498Z,3.50
2023-05-05T03:02:17.419Z,3.72
2023-05-05T03:05:09.907Z,3.85
2023-05-05T03:07:48.045Z,4.13
2023-05-05T03:10:18.445Z,4.22
2023-05-05T03:13:07.583Z,3.92
2023-05-05T03:15:54.779Z,4.28
2023-05-05T03:18:23.216Z,3.72
2023-05-05T03:20:53.454Z,3.72
2023-05-05T03:23:21.061Z,3.15
2023-05-05T03:25:49.292Z,3.30
2023-05-05T03:28:16.820Z,3.55
2023-05-05T03:30:44.152Z,4.05
2023-05-05T03:33:11.918Z,3.63
2023-05-05T03:35:38.381Z,3.70
2023-05-05T03:38:04.840Z,3.83
2023-05-05T03:40:43.640Z,3.58
2023-05-05T03:43:11.537Z,4.53
2023-05-05T03:45:38.780Z,3.78
2023-05-05T03:48:06.182Z,3.92
2023-05-05T03:50:32.745Z,4.32
2023-05-05T03:52:59.566Z,4.03
2023-05-05T03:55:26.116Z,4.35
2023-05-05T03:57:52.573Z,4.63
2023-05-05T04:00:19.430Z,4.03
2023-05-05T04:02:46.047Z,3.88
2023-05-05T04:05:12.652Z,4.55
2023-05-05T04:07:39.623Z,4.38
2023-05-05T04:10:07.350Z,5.15
2023-05-05T04:12:34.049Z,4.38
2023-05-05T04:15:00.596Z,3.97
2023-05-05T04:17:27.102Z,4.10
2023-05-05T04:19:54.688Z,4.13
2023-05-05T04:22:21.268Z,4.60
2023-05-05T04:24:48.099Z,4.45
2023-05-05T04:27:14.556Z,4.43
2023-05-05T04:29:41.407Z,4.22
2023-05-05T04:32:09.225Z,3.97
2023-05-05T04:34:35.836Z,3.83
2023-05-05T04:37:02.326Z,4.25
2023-05-05T04:39:30.239Z,4.00
2023-05-05T04:41:56.680Z,3.60
2023-05-05T04:44:23.353Z,3.95
2023-05-05T04:46:49.818Z,3.72
2023-05-05T04:49:16.354Z,4.63
2023-05-05T04:51:42.864Z,3.28
2023-05-05T04:54:09.348Z,4.05
2023-05-05T04:56:35.943Z,4.00
2023-05-05T04:59:02.475Z,4.30
2023-05-05T05:01:29.013Z,3.70
2023-05-05T05:03:56.901Z,3.88
2023-05-05T05:06:23.495Z,3.65
2023-05-05T05:08:50.119Z,4.50
2023-05-05T05:11:16.601Z,3.72
2023-05-05T05:13:43.362Z,4.28
2023-05-05T05:16:10.059Z,4.32
2023-05-05T05:18:36.595Z,3.72
2023-05-05T05:21:03.545Z,3.45
2023-05-05T05:23:30.075Z,3.63
2023-05-05T05:25:57.144Z,4.20
2023-05-05T05:28:24.008Z,4.25
2023-05-05T05:30:50.676Z,3.63
2023-05-05T05:33:17.099Z,4.03
2023-05-05T05:35:43.596Z,4.22
2023-05-05T05:38:09.967Z,4.20
2023-05-05T05:40:38.035Z,4.05
2023-05-05T05:43:04.513Z,3.92
2023-05-05T05:45:31.055Z,5.00
2023-05-05T05:47:57.820Z,4.57
2023-05-05T05:50:27.127Z,4.70
2023-05-05T05:52:53.671Z,5.07
2023-05-05T05:55:20.128Z,4.57
2023-05-05T05:57:46.628Z,4.85
2023-05-05T06:00:13.926Z,5.22
2023-05-05T06:02:40.725Z,5.13
2023-05-05T06:05:07.545Z,5.32
2023-05-05T06:07:34.020Z,5.40
2023-05-05T06:10:10.910Z,6.13
2023-05-05T06:12:45.481Z,5.43
2023-05-05T06:15:11.995Z,5.95
2023-05-05T06:17:38.533Z,6.10
2023-05-05T06:20:06.049Z,5.95
2023-05-05T06:22:32.837Z,5.50
2023-05-05T06:24:59.515Z,5.20
2023-05-05T06:27:26.063Z,5.78
2023-05-05T06:29:52.641Z,5.43
2023-05-05T06:32:20.404Z,4.95
2023-05-05T06:34:48.301Z,4.75
2023-05-05T06:37:15.452Z,5.85
2023-05-05T06:39:42.003Z,4.82
2023-05-05T06:42:08.585Z,4.55
2023-05-05T06:44:36.516Z,5.22
2023-05-05T06:47:04.054Z,4.13
2023-05-05T06:49:32.852Z,5.53
2023-05-05T06:51:59.579Z,5.47
2023-05-05T06:54:26.377Z,5.35
2023-05-05T06:56:52.985Z,4.95
2023-05-05T06:59:21.239Z,6.05
2023-05-05T07:01:48.245Z,5.40
2023-05-05T07:04:14.926Z,5.20
2023-05-05T07:06:44.034Z,5.30
2023-05-05T07:09:10.794Z,4.43
2023-05-05T07:11:37.989Z,4.28
2023-05-05T07:14:04.716Z,3.75
2023-05-05T07:16:31.308Z,3.15
2023-05-05T07:18:58.212Z,3.20
2023-05-05T07:21:24.840Z,3.67
2023-05-05T07:23:51.630Z,3.67
2023-05-05T07:26:18.273Z,3.88
2023-05-05T07:28:44.989Z,3.05
2023-05-05T07:31:11.826Z,2.60
2023-05-05T07:33:38.655Z,2.90
2023-05-05T07:36:06.261Z,2.75
2023-05-05T07:38:42.261Z,2.35
2023-05-05T07:41:12.299Z,2.42
2023-05-05T07:43:42.818Z,2.15
2023-05-05T07:48:42.685Z,2.53
2023-05-05T07:51:09.989Z,2.28
2023-05-05T07:53:37.170Z,2.80
2023-05-05T07:56:04.181Z,2.95
2023-05-05T07:58:30.957Z,2.05
2023-05-05T08:00:57.753Z,2.33
2023-05-05T08:03:24.994Z,2.20
2023-05-05T08:05:55.962Z,2.30
2023-05-05T08:08:27.007Z,2.38
2023-05-05T08:10:53.586Z,2.00
2023-05-05T08:13:35.710Z,2.17
2023-05-05T08:16:02.730Z,2.78
2023-05-05T08:18:29.741Z,1.63
2023-05-05T08:20:56.740Z,2.00
2023-05-05T08:23:23.370Z,1.70
2023-05-05T08:25:49.977Z,1.80
2023-05-05T08:28:16.581Z,2.63
2023-05-05T08:30:45.783Z,1.88
2023-05-05T08:33:12.488Z,1.35
2023-05-05T08:35:39.184Z,1.30
2023-05-05T08:38:08.670Z,1.50
2023-05-05T08:40:37.925Z,1.40
2023-05-05T08:43:05.048Z,1.20
2023-05-05T08:45:32.203Z,1.00
2023-05-05T08:48:02.656Z,1.10
2023-05-05T08:50:29.935Z,1.25
2023-05-05T08:53:11.715Z,1.58
2023-05-05T08:55:48.130Z,1.02
2023-05-05T08:58:27.028Z,1.02
2023-05-05T09:00:56.467Z,0.95
2023-05-05T09:03:23.628Z,0.95
2023-05-05T09:05:51.093Z,1.95
2023-05-05T09:08:18.089Z,0.80
2023-05-05T09:10:44.904Z,0.88
2023-05-05T09:13:11.598Z,1.10
2023-05-05T09:15:42.215Z,1.23
2023-05-05T09:18:09.689Z,1.15
2023-05-05T09:20:38.394Z,1.25
2023-05-05T09:23:16.584Z,1.17
2023-05-05T09:28:16.509Z,1.38
2023-05-05T09:30:45.004Z,0.90
2023-05-05T09:33:12.173Z,0.90
2023-05-05T09:35:55.784Z,1.08
2023-05-05T09:38:24.632Z,2.15
2023-05-05T09:40:53.953Z,1.90
2023-05-05T09:43:22.286Z,2.42
2023-05-05T09:45:49.583Z,2.45
2023-05-05T09:48:30.641Z,2.58
2023-05-05T09:50:58.610Z,4.40
2023-05-05T09:53:26.560Z,3.40
2023-05-05T09:55:57.611Z,3.30
2023-05-05T09:58:35.317Z,2.55
2023-05-05T10:01:01.897Z,2.47
2023-05-05T10:03:28.405Z,2.42
2023-05-05T10:05:57.372Z,3.33
2023-05-05T10:08:30.479Z,2.30
2023-05-05T10:11:06.462Z,2.08
2023-05-05T10:13:39.980Z,3.25
2023-05-05T10:16:09.183Z,2.70
2023-05-05T10:18:39.669Z,1.80
2023-05-05T10:21:07.327Z,1.17
2023-05-05T10:23:51.256Z,0.00
2023-05-05T10:26:21.105Z,0.10
2023-05-05T10:28:55.162Z,0.20
2023-05-05T10:31:48.034Z,0.20
2023-05-05T10:34:45.244Z,0.40
2023-05-05T10:37:12.070Z,0.70
2023-05-05T10:39:38.748Z,0.30
2023-05-05T10:42:05.410Z,0.52
2023-05-05T10:44:33.252Z,0.50
2023-05-05T10:47:01.590Z,0.55
2023-05-05T10:49:28.204Z,0.88
2023-05-05T10:52:16.881Z,0.75
2023-05-05T10:54:50.824Z,0.70
2023-05-05T10:57:21.748Z,0.80
2023-05-05T10:59:48.415Z,0.90
2023-05-05T11:02:34.344Z,1.00
2023-05-05T11:05:17.854Z,1.20
2023-05-05T11:07:46.472Z,1.13
2023-05-05T11:10:17.787Z,1.25
2023-05-05T11:13:00.446Z,0.88
2023-05-05T11:15:37.373Z,1.40
2023-05-05T11:18:07.512Z,1.60
2023-05-05T11:20:40.664Z,1.70
2023-05-05T11:23:07.446Z,1.33
2023-05-05T11:25:37.503Z,1.50
2023-05-05T11:28:12.362Z,1.38
2023-05-05T11:31:03.108Z,1.77
2023-05-05T11:33:37.898Z,1.65
2023-05-05T11:36:12.490Z,1.33
2023-05-05T11:38:39.845Z,1.67
2023-05-05T11:41:09.679Z,2.00
2023-05-05T11:43:36.936Z,2.05
2023-05-05T11:46:14.604Z,2.15
2023-05-05T11:48:47.886Z,3.17
2023-05-05T11:51:19.065Z,1.90
2023-05-05T11:53:47.462Z,1.65
2023-05-05T11:56:22.353Z,1.67
2023-05-05T11:58:49.432Z,1.85
2023-05-05T12:01:16.170Z,1.75
2023-05-05T12:03:45.247Z,1.67
2023-05-05T12:06:13.208Z,1.67
2023-05-05T12:08:41.200Z,1.40
2023-05-05T12:11:11.976Z,1.77
2023-05-05T12:13:38.937Z,1.92
2023-05-05T12:16:16.081Z,1.60
2023-05-05T12:18:43.636Z,1.08
2023-05-05T12:21:20.866Z,1.65
2023-05-05T12:23:49.940Z,1.73
2023-05-05T12:26:43.509Z,1.67
2023-05-05T12:29:11.246Z,1.63
2023-05-05T12:31:42.097Z,1.90
2023-05-05T12:34:10.513Z,1.70
2023-05-05T12:36:38.514Z,1.55
2023-05-05T12:39:05.868Z,1.75
2023-05-05T12:41:35.914Z,1.98
2023-05-05T12:44:04.729Z,2.13
2023-05-05T12:46:48.037Z,2.22
2023-05-05T12:49:15.791Z,2.17
2023-05-05T12:51:58.653Z,2.28
2023-05-05T12:54:32.587Z,3.20
2023-05-05T12:57:11.568Z,2.22
2023-05-05T12:59:39.490Z,2.53
2023-05-05T13:02:09.800Z,2.80
2023-05-05T13:04:49.455Z,2.42
2023-05-05T13:07:17.929Z,2.60
2023-05-05T13:09:47.200Z,2.53
2023-05-05T13:12:15.200Z,2.95
2023-05-05T13:14:42.626Z,2.08
2023-05-05T13:17:13.482Z,2.45
2023-05-05T13:19:46.909Z,2.67
2023-05-05T13:22:18.648Z,2.13
2023-05-05T13:24:51.453Z,2.30
2023-05-05T13:27:20.173Z,2.58
2023-05-05T13:29:49.227Z,2.83
2023-05-05T13:32:16.315Z,2.90
2023-05-05T13:34:46.760Z,2.92
2023-05-05T13:37:14.144Z,2.72
2023-05-05T13:39:40.902Z,2.40
2023-05-05T13:42:08.058Z,2.10
2023-05-05T13:44:35.784Z,2.60
2023-05-05T13:47:03.305Z,3.10
2023-05-05T13:49:30.431Z,2.15
2023-05-05T13:51:58.576Z,2.58
2023-05-05T13:54:25.757Z,1.67
2023-05-05T13:56:53.817Z,1.73
2023-05-05T13:59:20.889Z,1.25
2023-05-05T14:01:49.279Z,1.52
2023-05-05T14:04:17.924Z,1.25
2023-05-05T14:06:46.443Z,0.77
2023-05-05T14:09:13.214Z,1.10
2023-05-05T14:11:40.166Z,0.93
2023-05-05T14:14:07.284Z,0.73
2023-05-05T14:16:34.106Z,0.77
2023-05-05T14:19:01.529Z,0.85
2023-05-05T14:21:28.789Z,1.08
2023-05-05T14:23:55.811Z,1.27
2023-05-05T14:26:23.383Z,1.27
2023-05-05T14:28:50.264Z,0.80
2023-05-05T14:31:17.754Z,1.00
2023-05-05T14:33:44.562Z,0.68
2023-05-05T14:36:11.196Z,0.70
2023-05-05T14:38:38.063Z,0.82
2023-05-05T14:41:05.290Z,0.52
2023-05-05T14:43:41.588Z,0.65
2023-05-05T14:46:08.407Z,0.60
2023-05-05T14:48:35.291Z,0.82
2023-05-05T14:51:01.953Z,0.70
2023-05-05T14:53:28.646Z,1.13
2023-05-05T14:55:56.108Z,0.93
2023-05-05T14:58:24.589Z,1.10
2023-05-05T15:00:52.919Z,1.00
2023-05-05T15:03:19.734Z,0.70
2023-05-05T15:05:47.070Z,0.95
2023-05-05T15:08:19.871Z,0.80
2023-05-05T15:10:47.014Z,1.27
2023-05-05T15:13:14.217Z,0.70
2023-05-05T15:15:41.409Z,0.60
2023-05-05T15:18:08.466Z,0.90
2023-05-05T15:20:35.729Z,0.70
2023-05-05T15:23:02.844Z,0.80
2023-05-05T15:25:30.062Z,0.85
2023-05-05T15:27:58.023Z,0.73
2023-05-05T15:30:25.113Z,0.70
2023-05-05T15:32:51.982Z,0.63
2023-05-05T15:35:19.219Z,0.65
2023-05-05T15:37:48.192Z,0.35
2023-05-05T15:40:15.086Z,0.70
2023-05-05T15:42:41.858Z,0.60
2023-05-05T15:45:12.497Z,0.68
2023-05-05T15:47:39.343Z,0.68
2023-05-05T15:50:09.055Z,0.70
2023-05-05T15:52:38.277Z,0.80
2023-05-05T15:55:09.006Z,0.55
2023-05-05T15:57:36.143Z,1.10
2023-05-05T16:00:03.030Z,0.57
2023-05-05T16:02:29.862Z,0.63
2023-05-05T16:05:00.099Z,0.85
2023-05-05T16:07:26.942Z,0.70
2023-05-05T16:09:53.738Z,0.95
2023-05-05T16:12:23.319Z,0.55
2023-05-05T16:14:50.334Z,0.65
2023-05-05T16:17:16.910Z,0.85
2023-05-05T16:19:43.759Z,0.70
2023-05-05T16:22:10.629Z,0.52
2023-05-05T16:24:37.554Z,0.70
2023-05-05T16:27:04.603Z,0.65
2023-05-05T16:29:31.360Z,0.55
2023-05-05T16:32:00.613Z,0.55
2023-05-05T16:34:27.400Z,0.80
2023-05-05T16:36:54.064Z,0.95
2023-05-05T16:39:23.534Z,0.95
2023-05-05T16:41:53.147Z,0.55
2023-05-05T16:44:19.826Z,0.50
2023-05-05T16:46:47.800Z,0.50
2023-05-05T16:49:14.467Z,0.55
2023-05-05T16:51:41.336Z,0.40
2023-05-05T16:54:08.056Z,0.30
2023-05-05T16:56:34.681Z,0.40
2023-05-05T16:59:01.480Z,0.50
2023-05-05T17:01:28.166Z,0.40
2023-05-05T17:03:55.601Z,0.40
2023-05-05T17:06:22.409Z,0.35
2023-05-05T17:08:49.082Z,0.40
2023-05-05T17:11:15.574Z,0.30
2023-05-05T17:13:42.317Z,0.30
2023-05-05T17:16:08.947Z,0.32
2023-05-05T17:18:35.460Z,0.80
2023-05-05T17:21:05.413Z,0.85
2023-05-05T17:23:32.265Z,0.50
2023-05-05T17:25:59.404Z,0.73
2023-05-05T17:28:31.975Z,1.60
2023-05-05T17:31:00.006Z,0.47
2023-05-05T17:33:26.744Z,0.70
2023-05-05T17:35:54.566Z,0.63
2023-05-05T17:38:21.435Z,0.43
2023-05-05T17:40:50.296Z,0.60
2023-05-05T17:43:16.809Z,0.47
2023-05-05T17:45:43.475Z,0.47
2023-05-05T17:48:11.270Z,0.60
2023-05-05T17:50:37.749Z,0.63
2023-05-05T17:53:04.841Z,0.73
2023-05-05T17:55:31.389Z,0.32
2023-05-05T17:57:59.030Z,0.75
2023-05-05T18:00:29.301Z,0.63
2023-05-05T18:02:56.131Z,1.00
2023-05-05T18:05:22.886Z,0.55
2023-05-05T18:07:51.623Z,0.73
2023-05-05T18:10:19.245Z,0.43
2023-05-05T18:12:45.851Z,0.40
2023-05-05T18:15:12.433Z,0.70
2023-05-05T18:17:41.895Z,0.70
2023-05-05T18:20:09.107Z,0.65
2023-05-05T18:22:35.954Z,0.68
2023-05-05T18:25:02.528Z,0.70
2023-05-05T18:27:29.271Z,0.60
2023-05-05T18:29:58.624Z,0.60
2023-05-05T18:32:25.271Z,0.50
2023-05-05T18:34:51.841Z,0.52
2023-05-05T18:37:18.362Z,0.60
2023-05-05T18:39:45.244Z,0.80
2023-05-05T18:42:13.125Z,0.70
2023-05-05T18:44:41.525Z,0.63
2023-05-05T18:47:08.260Z,0.63
2023-05-05T18:49:35.032Z,0.85
2023-05-05T18:52:01.512Z,0.90
2023-05-05T18:54:30.449Z,1.00
2023-05-05T18:56:57.348Z,1.02
2023-05-05T18:59:23.834Z,0.85
2023-05-05T19:01:50.326Z,0.93
2023-05-05T19:04:30.061Z,0.55
2023-05-05T19:06:59.914Z,0.63
2023-05-05T19:09:26.792Z,1.00
2023-05-05T19:11:55.821Z,1.25
2023-05-05T19:14:22.880Z,0.73
2023-05-05T19:16:49.559Z,1.00
2023-05-05T19:19:22.303Z,0.82
2023-05-05T19:21:48.826Z,0.70
2023-05-05T19:24:17.040Z,0.95
2023-05-05T19:26:47.588Z,1.13
2023-05-05T19:29:14.184Z,1.17
2023-05-05T19:31:40.859Z,1.30
2023-05-05T19:34:10.167Z,1.50
2023-05-05T19:36:36.727Z,1.10
2023-05-05T19:39:04.772Z,1.05
2023-05-05T19:41:31.448Z,1.13
2023-05-05T19:43:58.127Z,1.08
2023-05-05T19:46:27.180Z,1.33
2023-05-05T19:48:53.668Z,1.17
2023-05-05T19:51:21.365Z,1.33
2023-05-05T19:53:47.904Z,1.20
2023-05-05T19:56:14.429Z,1.08
2023-05-05T19:58:57.619Z,0.80
2023-05-05T20:01:24.473Z,1.00
2023-05-05T20:03:54.268Z,0.90
2023-05-05T20:06:21.217Z,1.40
2023-05-05T20:08:47.758Z,3.47
2023-05-05T20:11:15.822Z,0.95
2023-05-05T20:13:43.075Z,1.10
2023-05-05T20:16:10.099Z,1.65
2023-05-05T20:18:36.572Z,2.53
2023-05-05T20:21:03.262Z,1.10
2023-05-05T20:23:29.953Z,1.30
2023-05-05T20:25:56.768Z,1.13
2023-05-05T20:28:23.659Z,1.58
2023-05-05T20:30:50.183Z,1.00
2023-05-05T20:33:16.684Z,1.63
2023-05-05T20:35:43.098Z,1.65
2023-05-05T20:38:09.860Z,1.80
2023-05-05T20:40:38.651Z,1.50
2023-05-05T20:43:05.168Z,0.40
2023-05-05T20:45:34.200Z,0.50
2023-05-05T20:48:01.697Z,1.13
2023-05-05T20:50:28.267Z,1.80
2023-05-05T20:52:55.004Z,1.48
2023-05-05T20:55:24.079Z,1.45
2023-05-05T20:57:50.603Z,1.35
2023-05-05T21:00:17.179Z,2.65
2023-05-05T21:02:43.782Z,1.63
2023-05-05T21:05:10.530Z,1.55
2023-05-05T21:07:37.358Z,1.50
2023-05-05T21:10:04.916Z,1.35
2023-05-05T21:12:33.814Z,1.98
2023-05-05T21:15:00.731Z,1.42
2023-05-05T21:17:27.840Z,1.60
2023-05-05T21:19:55.527Z,1.88
2023-05-05T21:22:22.397Z,1.88
2023-05-05T21:24:49.188Z,1.92
2023-05-05T21:27:16.081Z,1.83
2023-05-05T21:29:42.566Z,2.65
2023-05-05T21:32:10.806Z,2.33
2023-05-05T21:34:38.334Z,2.17
2023-05-05T21:40:14.029Z,2.57
2023-05-05T21:42:51.862Z,2.35
2023-05-05T21:45:34.579Z,2.13
2023-05-05T21:48:01.609Z,2.26
2023-05-05T21:50:29.910Z,2.10
2023-05-05T21:52:56.538Z,3.15
2023-05-05T21:55:23.079Z,2.67
2023-05-05T21:57:49.492Z,2.40
2023-05-05T22:00:16.780Z,3.10
2023-05-05T22:02:45.297Z,3.55
2023-05-05T22:05:13.644Z,1.80
2023-05-05T22:07:40.705Z,1.80
2023-05-05T22:10:08.074Z,1.25
2023-05-05T22:12:34.852Z,1.30
2023-05-05T22:15:01.417Z,1.52
2023-05-05T22:17:27.958Z,1.38
2023-05-05T22:19:58.195Z,1.50
2023-05-05T22:22:24.661Z,1.13
2023-05-05T22:24:51.461Z,1.88
2023-05-05T22:27:17.912Z,2.10
2023-05-05T22:29:44.474Z,1.52
2023-05-05T22:32:12.315Z,0.90
2023-05-05T22:34:40.313Z,2.20
2023-05-05T22:37:06.777Z,2.25
2023-05-05T22:39:33.352Z,3.92
2023-05-05T22:41:59.902Z,2.05
2023-05-05T22:44:26.439Z,2.17
2023-05-05T22:46:52.995Z,2.00
2023-05-05T22:49:19.668Z,1.50
2023-05-05T22:51:47.009Z,1.17
2023-05-05T22:54:13.476Z,2.28
2023-05-05T22:56:40.377Z,2.00
2023-05-05T22:59:06.898Z,2.00
2023-05-05T23:01:34.002Z,1.48
2023-05-05T23:04:00.709Z,2.33
2023-05-05T23:06:28.000Z,1.40
2023-05-05T23:08:54.570Z,1.40
2023-05-05T23:11:21.188Z,1.50
2023-05-05T23:13:50.523Z,2.00
2023-05-05T23:16:18.516Z,2.05
2023-05-05T23:18:45.186Z,1.17
2023-05-05T23:21:11.698Z,1.88
2023-05-05T23:23:38.475Z,2.10
2023-05-05T23:26:05.125Z,1.70
2023-05-05T23:28:31.651Z,3.25
2023-05-05T23:30:58.342Z,3.20
2023-05-05T23:33:27.812Z,3.03
2023-05-05T23:35:54.355Z,2.97
2023-05-05T23:38:22.707Z,3.03
2023-05-05T23:40:49.232Z,2.53
2023-05-05T23:43:15.912Z,2.95
2023-05-05T23:45:42.386Z,3.30
2023-05-05T23:48:08.961Z,3.00
2023-05-05T23:50:35.587Z,2.83
2023-05-05T23:53:02.075Z,2.70
2023-05-05T23:55:28.644Z,2.72
2023-05-05T23:57:55.658Z,2.72
